Terminal Aerodrome Forecast
Issued by NWS Melbourne, FL

Home | Current Version | Previous Version | Text Only | Print | Product List | Glossary On
Versions: 1 2 3 4 5 6 7 8 9 10 11 12 13
537
FTUS42 KMLB 301722
TAFMLB
TAF
KMLB 301722Z 3018/0118 14012G18KT P6SM SCT030 BKN300
     FM010400 12006KT P6SM BKN250
     FM011400 12011KT P6SM FEW040 BKN250=

USA.gov is the U.S. government's official web portal to all federal, state and local government web resources and services.